Hauptseite
METAR-TAF:

METAR-TAF

Flughäfen :

Flughafen Mopti

Mopti, Mali

Breite: 14-30-46N, Länge: 004-04-46W, Höhe: 276 m

Beobachtung

Neuester Wetterbericht von vor 1 Stunde und 33 Minuten, um 18:00 UTC
Wind 12 kt aus Nord/Nordwest
Temperatur 30°C
Luftfeuchtigkeit 38%
Luftdruck 1011 hPa
Sichtweite 10 km oder mehr
keine Wolken unter 1500 m und keine Kumulonimbus oder Gewitterwolken

METAR: GAMB 071800Z 34012KT CAVOK 30/14 Q1011

Zeit: 19:33 (19:33 UTC)


TAF: fehlend

Wetterbeobachtungen und Prognosen von mehr als 4000 Flughäfen (METAR und TAF Bericht).

Die verfügbaren Stationen werden durch gelbe und rote Markierungen auf der Karte dargestellt.

Führen Sie die Maus auf sie, um den Namen der Station zu sehen.

Darauf klicken, um die Beobachtung von Wetterbeobachtungen und Prognosen zu sehen.

Um die Karte zu ändern : klicken Sie auf den grünen Tasten mit einem schwarzen Kreuz Zum Vergrößern, auf den grünen Button mit einem Gedankenstrich zu verkleinern, oder auf die grünen Pfeile für benachbarte Karten.


METAR-TAF: